createdAt,value
2023-04-24T00:00:41.201Z,90.41
2023-04-24T00:01:41.212Z,90.62
2023-04-24T00:02:41.503Z,91.13
2023-04-24T00:03:41.359Z,90.31
2023-04-24T00:04:41.407Z,90.62
2023-04-24T00:05:41.204Z,90.72
2023-04-24T00:06:41.176Z,90.92
2023-04-24T00:07:41.168Z,90.41
2023-04-24T00:08:41.170Z,89.59
2023-04-24T00:09:41.409Z,90.62
2023-04-24T00:10:41.167Z,90.45
2023-04-24T00:11:41.160Z,91.03
2023-04-24T00:12:41.161Z,91.44
2023-04-24T00:13:41.155Z,90.62
2023-04-24T00:14:41.159Z,90.21
2023-04-24T00:15:41.151Z,90.52
2023-04-24T00:16:41.198Z,90.72
2023-04-24T00:17:41.180Z,90.92
2023-04-24T00:18:41.139Z,91.03
2023-04-24T00:19:41.368Z,90.72
2023-04-24T00:20:41.129Z,90.66
2023-04-24T00:21:41.127Z,91.89
2023-04-24T00:22:41.131Z,91.38
2023-04-24T00:23:41.126Z,91.17
2023-04-24T00:24:41.121Z,91.27
2023-04-24T00:25:41.136Z,90.77
2023-04-24T00:26:41.129Z,91.48
2023-04-24T00:27:41.138Z,90.97
2023-04-24T00:28:41.113Z,91.27
2023-04-24T00:29:41.493Z,90.56
2023-04-24T00:30:41.105Z,90.86
2023-04-24T00:31:41.170Z,89.74
2023-04-24T00:32:41.149Z,89.43
2023-04-24T00:33:41.096Z,88.82
2023-04-24T00:34:41.093Z,89.84
2023-04-24T00:35:41.085Z,90.19
2023-04-24T00:36:41.088Z,88.86
2023-04-24T00:37:41.111Z,89.27
2023-04-24T00:38:41.082Z,89.37
2023-04-24T00:39:41.315Z,88.45
2023-04-24T00:40:41.080Z,88.45
2023-04-24T00:41:41.121Z,89.37
2023-04-24T00:42:41.072Z,89.43
2023-04-24T00:43:41.080Z,89.06
2023-04-24T00:44:41.069Z,89.03
2023-04-24T00:45:41.064Z,88.65
2023-04-24T00:46:41.158Z,89.84
2023-04-24T00:47:41.426Z,90.36
2023-04-24T00:48:41.061Z,90.66
2023-04-24T00:49:41.456Z,90.66
2023-04-24T00:50:41.048Z,91.07
2023-04-24T00:51:41.044Z,91.89
2023-04-24T00:52:41.094Z,90.66
2023-04-24T00:53:41.038Z,90.97
2023-04-24T00:54:41.033Z,91.27
2023-04-24T00:55:41.036Z,90.86
2023-04-24T00:56:41.027Z,91.27
2023-04-24T00:57:41.043Z,91.89
2023-04-24T00:58:41.048Z,91.07
2023-04-24T00:59:41.260Z,90.77
2023-04-24T01:00:41.021Z,90.86
2023-04-24T01:02:41.182Z,91.33
2023-04-24T01:03:41.190Z,90.77
2023-04-24T01:04:41.403Z,90.36
2023-04-24T01:05:41.003Z,90.05
2023-04-24T01:06:41.000Z,89.43
2023-04-24T01:07:41.000Z,90.21
2023-04-24T01:08:40.997Z,90.86
2023-04-24T01:09:41.190Z,91.89
2023-04-24T01:10:40.989Z,90.77
2023-04-24T01:11:40.985Z,90.86
2023-04-24T01:12:40.982Z,90.97
2023-04-24T01:13:41.032Z,90.45
2023-04-24T01:14:40.974Z,89.27
2023-04-24T01:15:41.013Z,88.71
2023-04-24T01:16:40.972Z,89.23
2023-04-24T01:17:41.020Z,89.64
2023-04-24T01:18:40.966Z,90.25
2023-04-24T01:19:41.552Z,90.15
2023-04-24T01:20:40.964Z,89.58
2023-04-24T01:21:40.966Z,89.37
2023-04-24T01:22:40.963Z,88.86
2023-04-24T01:23:40.952Z,87.84
2023-04-24T01:24:40.995Z,88.04
2023-04-24T01:25:40.946Z,88.45
2023-04-24T01:26:40.954Z,88.65
2023-04-24T01:27:40.940Z,88.08
2023-04-24T01:28:40.940Z,88.18
2023-04-24T01:29:41.174Z,87.77
2023-04-24T01:30:40.933Z,87.67
2023-04-24T01:31:40.960Z,87.77
2023-04-24T01:32:40.951Z,88.18
2023-04-24T01:33:40.926Z,87.88
2023-04-24T01:34:40.926Z,88.64
2023-04-24T01:35:40.933Z,88.53
2023-04-24T01:36:40.910Z,88.74
2023-04-24T01:37:40.910Z,88.84
2023-04-24T01:38:40.905Z,88.94
2023-04-24T01:39:41.000Z,88.64
2023-04-24T01:40:40.898Z,88.43
2023-04-24T01:41:40.895Z,88.37
2023-04-24T01:42:40.889Z,89.19
2023-04-24T01:43:40.891Z,89.45
2023-04-24T01:44:40.969Z,89.66
2023-04-24T01:45:40.907Z,89.39
2023-04-24T01:46:40.923Z,89.45
2023-04-24T01:47:40.927Z,89.29
2023-04-24T01:48:40.880Z,88.92
2023-04-24T01:49:41.277Z,89.50
2023-04-24T01:50:40.873Z,90.42
2023-04-24T01:51:40.864Z,90.52
2023-04-24T01:52:41.066Z,90.32
2023-04-24T01:53:40.858Z,90.93
2023-04-24T01:54:40.853Z,92.06
2023-04-24T01:55:40.875Z,92.02
2023-04-24T01:56:40.847Z,91.71
2023-04-24T01:57:40.848Z,91.09
2023-04-24T01:58:40.840Z,90.73
2023-04-24T01:59:40.908Z,90.42
2023-04-24T02:00:40.873Z,90.63
2023-04-24T02:01:40.852Z,90.79
2023-04-24T02:02:40.928Z,90.42
2023-04-24T02:03:41.008Z,90.22
2023-04-24T02:04:40.887Z,90.42
2023-04-24T02:05:40.821Z,90.83
2023-04-24T02:06:40.815Z,90.63
2023-04-24T02:07:40.810Z,90.42
2023-04-24T02:08:40.804Z,90.52
2023-04-24T02:09:40.936Z,89.81
2023-04-24T02:10:40.806Z,90.42
2023-04-24T02:11:40.796Z,90.01
2023-04-24T02:12:40.793Z,90.42
2023-04-24T02:13:40.800Z,90.42
2023-04-24T02:14:40.783Z,90.01
2023-04-24T02:15:40.792Z,91.03
2023-04-24T02:16:40.876Z,91.14
2023-04-24T02:17:40.872Z,90.63
2023-04-24T02:18:40.768Z,90.11
2023-04-24T02:19:40.992Z,89.70
2023-04-24T02:20:40.779Z,89.90
2023-04-24T02:21:40.775Z,90.67
2023-04-24T02:22:40.755Z,90.05
2023-04-24T02:23:40.759Z,89.84
2023-04-24T02:24:40.750Z,89.75
2023-04-24T02:25:40.751Z,90.36
2023-04-24T02:26:40.748Z,90.87
2023-04-24T02:27:40.742Z,90.22
2023-04-24T02:28:40.733Z,89.95
2023-04-24T02:29:41.170Z,89.60
2023-04-24T02:30:40.748Z,90.16
2023-04-24T02:31:40.788Z,90.52
2023-04-24T02:32:40.756Z,91.18
2023-04-24T02:33:40.741Z,91.65
2023-04-24T02:34:40.730Z,91.44
2023-04-24T02:35:40.731Z,91.44
2023-04-24T02:36:40.710Z,90.93
2023-04-24T02:37:40.708Z,90.83
2023-04-24T02:38:40.701Z,90.42
2023-04-24T02:39:40.998Z,90.73
2023-04-24T02:40:40.694Z,90.32
2023-04-24T02:41:40.705Z,90.63
2023-04-24T02:42:40.690Z,90.83
2023-04-24T02:43:40.683Z,91.24
2023-04-24T02:44:40.682Z,90.89
2023-04-24T02:45:40.775Z,90.89
2023-04-24T02:46:40.673Z,90.58
2023-04-24T02:47:40.705Z,91.91
2023-04-24T02:48:40.669Z,90.28
2023-04-24T02:49:40.803Z,89.45
2023-04-24T02:50:40.662Z,90.37
2023-04-24T02:51:40.655Z,89.87
2023-04-24T02:52:41.017Z,90.79
2023-04-24T02:53:40.648Z,90.89
2023-04-24T02:54:40.647Z,90.58
2023-04-24T02:55:40.640Z,91.09
2023-04-24T02:56:40.649Z,90.79
2023-04-24T02:57:40.634Z,90.69
2023-04-24T02:58:40.633Z,91.09
2023-04-24T02:59:40.944Z,90.58
2023-04-24T03:00:40.637Z,90.37
2023-04-24T03:01:40.829Z,90.79
2023-04-24T03:02:40.801Z,90.69
2023-04-24T03:03:40.762Z,90.48
2023-04-24T03:04:40.781Z,91.30
2023-04-24T03:05:40.628Z,90.69
2023-04-24T03:06:40.604Z,89.97
2023-04-24T03:07:40.601Z,90.89
2023-04-24T03:08:40.598Z,90.37
2023-04-24T03:09:40.879Z,90.48
2023-04-24T03:10:40.602Z,90.79
2023-04-24T03:11:40.587Z,91.82
2023-04-24T03:12:40.588Z,91.71
2023-04-24T03:13:40.587Z,90.99
2023-04-24T03:14:40.580Z,90.89
2023-04-24T03:15:40.572Z,90.79
2023-04-24T03:16:40.936Z,92.02
2023-04-24T03:17:40.637Z,92.22
2023-04-24T03:18:40.565Z,91.91
2023-04-24T03:19:40.799Z,92.02
2023-04-24T03:20:40.570Z,92.32
2023-04-24T03:21:40.577Z,92.43
2023-04-24T03:22:40.564Z,91.87
2023-04-24T03:23:40.550Z,92.22
2023-04-24T03:24:40.549Z,91.50
2023-04-24T03:25:40.543Z,92.79
2023-04-24T03:26:40.541Z,92.83
2023-04-24T03:27:40.545Z,93.41
2023-04-24T03:28:40.550Z,93.41
2023-04-24T03:29:40.633Z,92.02
2023-04-24T03:30:40.534Z,91.50
2023-04-24T03:31:40.543Z,91.40
2023-04-24T03:32:40.637Z,92.32
2023-04-24T03:33:40.536Z,92.74
2023-04-24T03:34:40.515Z,92.32
2023-04-24T03:35:40.511Z,92.28
2023-04-24T03:36:40.530Z,92.32
2023-04-24T03:37:40.545Z,92.32
2023-04-24T03:38:40.510Z,92.43
2023-04-24T03:39:40.939Z,92.63
2023-04-24T03:40:40.498Z,92.02
2023-04-24T03:41:40.495Z,93.45
2023-04-24T03:42:40.491Z,92.43
2023-04-24T03:43:40.487Z,92.28
2023-04-24T03:44:40.490Z,93.55
2023-04-24T03:45:40.481Z,93.41
2023-04-24T03:46:40.617Z,93.96
2023-04-24T03:47:40.568Z,92.63
2023-04-24T03:48:40.472Z,92.12
2023-04-24T03:49:40.753Z,91.20
2023-04-24T03:50:40.474Z,91.50
2023-04-24T03:51:40.461Z,92.43
2023-04-24T03:52:40.721Z,91.61
2023-04-24T03:53:40.482Z,91.61
2023-04-24T03:54:40.457Z,90.58
2023-04-24T03:55:40.450Z,89.76
2023-04-24T03:56:40.447Z,90.07
2023-04-24T03:57:40.444Z,89.97
2023-04-24T03:58:40.451Z,90.79
2023-04-24T03:59:40.622Z,92.22
2023-04-24T04:00:40.431Z,90.69
2023-04-24T04:01:42.841Z,89.36
2023-04-24T04:02:40.573Z,89.04
2023-04-24T04:03:40.713Z,89.36
2023-04-24T04:04:40.683Z,89.56
2023-04-24T04:05:40.413Z,89.56
2023-04-24T04:06:40.424Z,90.37
2023-04-24T04:07:40.406Z,89.56
2023-04-24T04:08:40.408Z,90.28
2023-04-24T04:09:40.447Z,89.97
2023-04-24T04:10:40.404Z,89.45
2023-04-24T04:11:40.396Z,90.28
2023-04-24T04:12:40.395Z,90.99
2023-04-24T04:13:40.392Z,90.58
2023-04-24T04:14:40.409Z,90.79
2023-04-24T04:15:40.381Z,91.61
2023-04-24T04:16:40.437Z,92.22
2023-04-24T04:17:40.391Z,90.37
2023-04-24T04:18:40.384Z,89.76
2023-04-24T04:19:40.575Z,89.56
2023-04-24T04:20:40.364Z,90.17
2023-04-24T04:21:40.358Z,89.15
2023-04-24T04:22:42.722Z,88.74
2023-04-24T04:23:40.351Z,89.56
2023-04-24T04:24:40.360Z,88.53
2023-04-24T04:25:40.387Z,88.53
2023-04-24T04:26:40.357Z,88.43
2023-04-24T04:27:40.340Z,88.64
2023-04-24T04:28:40.388Z,90.22
2023-04-24T04:29:40.431Z,90.99
2023-04-24T04:30:40.329Z,90.69
2023-04-24T04:31:40.347Z,90.07
2023-04-24T04:32:40.378Z,88.98
2023-04-24T04:33:40.321Z,90.79
2023-04-24T04:34:40.318Z,90.58
2023-04-24T04:35:40.314Z,90.69
2023-04-24T04:36:40.314Z,89.50
2023-04-24T04:37:40.307Z,88.94
2023-04-24T04:38:42.426Z,89.04
2023-04-24T04:39:40.394Z,90.28
2023-04-24T04:40:40.298Z,90.58
2023-04-24T04:41:40.313Z,90.32
2023-04-24T04:42:40.301Z,90.58
2023-04-24T04:43:40.287Z,90.89
2023-04-24T04:44:40.286Z,91.40
2023-04-24T04:45:40.325Z,92.32
2023-04-24T04:46:40.288Z,92.22
2023-04-24T04:47:40.302Z,91.50
2023-04-24T04:48:40.276Z,92.22
2023-04-24T04:49:40.387Z,91.71
2023-04-24T04:50:40.266Z,90.79
2023-04-24T04:51:42.420Z,90.37
2023-04-24T04:52:40.259Z,91.30
2023-04-24T04:53:40.257Z,90.28
2023-04-24T04:54:40.252Z,89.97
2023-04-24T04:55:40.262Z,90.58
2023-04-24T04:56:40.247Z,90.69
2023-04-24T04:57:40.375Z,91.03
2023-04-24T04:58:40.252Z,90.58
2023-04-24T04:59:40.266Z,90.79
2023-04-24T05:00:40.246Z,91.71
2023-04-24T05:01:40.300Z,92.32
2023-04-24T05:02:40.462Z,90.69
2023-04-24T05:03:40.411Z,90.89
2023-04-24T05:04:40.603Z,90.37
2023-04-24T05:05:40.230Z,90.79
2023-04-24T05:06:40.214Z,92.22
2023-04-24T05:07:40.208Z,91.82
2023-04-24T05:08:40.206Z,92.43
2023-04-24T05:09:40.204Z,92.22
2023-04-24T05:10:40.202Z,92.63
2023-04-24T05:11:40.195Z,92.74
2023-04-24T05:12:40.199Z,92.32
2023-04-24T05:13:41.262Z,91.61
2023-04-24T05:14:40.195Z,92.32
2023-04-24T05:15:40.184Z,92.32
2023-04-24T05:16:40.209Z,91.61
2023-04-24T05:17:40.453Z,90.89
2023-04-24T05:18:40.259Z,92.02
2023-04-24T05:19:40.272Z,91.82
2023-04-24T05:20:40.168Z,91.40
2023-04-24T05:21:40.183Z,92.02
2023-04-24T05:22:40.158Z,91.44
2023-04-24T05:23:40.165Z,91.30
2023-04-24T05:24:40.156Z,90.32
2023-04-24T05:25:40.162Z,91.03
2023-04-24T05:26:40.148Z,90.22
2023-04-24T05:27:40.150Z,89.09
2023-04-24T05:28:40.146Z,89.81
2023-04-24T05:29:40.176Z,91.40
2023-04-24T05:30:40.145Z,90.93
2023-04-24T05:31:40.221Z,90.63
2023-04-24T05:32:40.229Z,90.63
2023-04-24T05:33:40.126Z,91.75
2023-04-24T05:34:40.123Z,91.75
2023-04-24T05:35:40.116Z,92.32
2023-04-24T05:36:40.117Z,92.88
2023-04-24T05:37:40.112Z,93.45
2023-04-24T05:38:40.108Z,93.80
2023-04-24T05:39:40.112Z,92.36
2023-04-24T05:40:40.106Z,93.39
2023-04-24T05:41:40.100Z,93.49
2023-04-24T05:42:40.093Z,93.70
2023-04-24T05:43:40.096Z,93.74
2023-04-24T05:44:40.091Z,93.85
2023-04-24T05:45:40.111Z,93.74
2023-04-24T05:46:40.164Z,93.64
2023-04-24T05:47:40.108Z,93.85
2023-04-24T05:48:40.081Z,94.46
2023-04-24T05:49:40.095Z,94.36
2023-04-24T05:50:40.066Z,94.56
2023-04-24T05:51:40.062Z,94.77
2023-04-24T05:52:40.082Z,95.28
2023-04-24T05:53:40.070Z,95.28
2023-04-24T05:54:40.065Z,95.59
2023-04-24T05:55:40.062Z,95.79
2023-04-24T05:56:41.241Z,96.00
2023-04-24T05:57:40.043Z,96.10
2023-04-24T05:58:40.055Z,95.59
2023-04-24T05:59:40.093Z,96.10
2023-04-24T06:00:40.048Z,96.72
2023-04-24T06:01:40.103Z,96.62
2023-04-24T06:02:40.184Z,97.13
2023-04-24T06:03:40.154Z,96.72
2023-04-24T06:04:40.219Z,96.41
2023-04-24T06:05:40.015Z,96.92
2023-04-24T06:06:40.019Z,96.72
2023-04-24T06:07:40.015Z,96.72
2023-04-24T06:08:40.015Z,96.62
2023-04-24T06:09:40.023Z,96.82
2023-04-24T06:10:40.018Z,96.62
2023-04-24T06:11:39.992Z,96.72
2023-04-24T06:12:39.996Z,96.72
2023-04-24T06:13:39.992Z,96.82
2023-04-24T06:14:39.986Z,96.92
2023-04-24T06:15:39.977Z,97.03
2023-04-24T06:16:40.056Z,97.13
2023-04-24T06:17:40.013Z,97.03
2023-04-24T06:18:39.964Z,97.13
2023-04-24T06:19:39.983Z,96.72
2023-04-24T06:20:39.978Z,96.92
2023-04-24T06:21:39.962Z,96.56
2023-04-24T06:22:40.361Z,96.56
2023-04-24T06:23:39.965Z,96.56
2023-04-24T06:24:39.946Z,96.97
2023-04-24T06:25:39.945Z,96.56
2023-04-24T06:26:39.949Z,96.66
2023-04-24T06:27:39.940Z,96.45
2023-04-24T06:28:39.934Z,96.66
2023-04-24T06:29:39.954Z,96.77
2023-04-24T06:30:39.931Z,96.77
2023-04-24T06:31:39.948Z,96.66
2023-04-24T06:34:40.159Z,96.45
2023-04-24T06:35:39.909Z,96.87
2023-04-24T06:36:39.908Z,96.66
2023-04-24T06:37:39.910Z,96.87
2023-04-24T06:38:39.901Z,96.87
2023-04-24T06:39:39.900Z,96.97
2023-04-24T06:40:41.317Z,97.48
2023-04-24T06:42:39.883Z,96.25
2023-04-24T06:43:39.886Z,96.87
2023-04-24T06:44:39.875Z,96.87
2023-04-24T06:45:39.904Z,97.17
2023-04-24T06:46:41.786Z,96.66
2023-04-24T06:47:39.903Z,96.87
2023-04-24T06:48:39.857Z,96.87
2023-04-24T06:49:39.870Z,97.07
2023-04-24T06:50:39.873Z,97.07
2023-04-24T06:51:39.853Z,96.97
2023-04-24T06:52:39.850Z,97.17
2023-04-24T06:53:39.861Z,97.38
2023-04-24T06:54:39.850Z,97.79
2023-04-24T06:55:39.843Z,97.69
2023-04-24T06:56:39.839Z,97.69
2023-04-24T06:57:39.832Z,98.51
2023-04-24T06:58:39.832Z,98.30
2023-04-24T06:59:39.825Z,98.30
2023-04-24T07:00:39.833Z,97.99
2023-04-24T07:01:39.853Z,98.10
2023-04-24T07:02:39.996Z,98.61
2023-04-24T07:03:39.969Z,98.61
2023-04-24T07:04:39.930Z,98.41
2023-04-24T07:05:39.802Z,97.99
2023-04-24T07:06:39.842Z,98.14
2023-04-24T07:07:39.796Z,98.61
2023-04-24T07:08:39.845Z,98.61
2023-04-24T07:09:39.843Z,98.61
2023-04-24T07:10:39.784Z,98.71
2023-04-24T07:11:39.781Z,99.12
2023-04-24T07:12:39.781Z,98.82
2023-04-24T07:13:39.773Z,98.51
2023-04-24T07:14:39.776Z,99.07
2023-04-24T07:15:39.789Z,99.27
2023-04-24T07:16:39.804Z,99.38
2023-04-24T07:17:39.848Z,99.17
2023-04-24T07:18:39.764Z,99.07
2023-04-24T07:19:39.753Z,99.27
2023-04-24T07:20:39.753Z,99.68
2023-04-24T07:21:39.744Z,99.58
2023-04-24T07:22:39.782Z,99.17
2023-04-24T07:23:39.736Z,99.17
2023-04-24T07:24:39.739Z,99.38
2023-04-24T07:25:39.731Z,99.58
2023-04-24T07:26:39.739Z,99.27
2023-04-24T07:27:39.726Z,99.38
2023-04-24T07:28:39.769Z,99.68
2023-04-24T07:29:39.717Z,99.58
2023-04-24T07:30:39.716Z,99.27
2023-04-24T07:31:39.745Z,99.99
2023-04-24T07:32:39.731Z,99.93
2023-04-24T07:33:39.704Z,99.99
2023-04-24T07:34:39.699Z,99.99
2023-04-24T07:35:39.692Z,99.99
2023-04-24T07:36:39.695Z,99.99
2023-04-24T07:37:39.697Z,99.99
2023-04-24T07:38:39.701Z,99.99
2023-04-24T07:39:39.682Z,99.99
2023-04-24T07:40:39.676Z,99.99
2023-04-24T07:41:39.670Z,99.99
2023-04-24T07:42:40.030Z,99.99
2023-04-24T07:43:39.668Z,99.99
2023-04-24T07:44:39.665Z,99.99
2023-04-24T07:45:39.659Z,99.99
2023-04-24T07:47:39.665Z,99.99
2023-04-24T07:48:39.644Z,99.99
2023-04-24T07:49:39.646Z,99.99
2023-04-24T07:50:39.637Z,99.72
2023-04-24T07:51:39.632Z,99.35
2023-04-24T07:52:39.632Z,99.60
2023-04-24T07:53:39.623Z,99.91
2023-04-24T07:54:39.645Z,99.55
2023-04-24T07:55:39.617Z,99.99
2023-04-24T07:56:39.648Z,99.65
2023-04-24T07:57:39.624Z,99.86
2023-04-24T07:58:39.607Z,99.99
2023-04-24T07:59:39.601Z,99.99
2023-04-24T08:00:39.599Z,99.99
2023-04-24T08:01:39.601Z,99.99
2023-04-24T08:03:39.729Z,99.99
2023-04-24T08:04:39.744Z,99.99
2023-04-24T08:05:41.131Z,99.99
2023-04-24T08:06:39.586Z,99.99
2023-04-24T08:07:39.580Z,99.99
2023-04-24T08:08:39.563Z,99.99
2023-04-24T08:09:39.569Z,99.99
2023-04-24T08:10:39.577Z,99.99
2023-04-24T08:11:39.549Z,99.99
2023-04-24T08:12:39.575Z,99.99
2023-04-24T08:13:39.547Z,99.99
2023-04-24T08:14:39.547Z,99.99
2023-04-24T08:15:39.533Z,99.99
2023-04-24T08:16:39.601Z,99.99
2023-04-24T08:17:39.536Z,99.99
2023-04-24T08:18:39.522Z,99.99
2023-04-24T08:19:39.516Z,99.99
2023-04-24T08:20:39.515Z,99.99
2023-04-24T08:21:39.505Z,99.99
2023-04-24T08:22:39.510Z,99.99
2023-04-24T08:23:39.509Z,99.99
2023-04-24T08:24:39.498Z,99.99
2023-04-24T08:25:39.495Z,99.99
2023-04-24T08:26:39.509Z,99.99
2023-04-24T08:27:39.482Z,99.99
2023-04-24T08:28:39.478Z,99.99
2023-04-24T08:29:39.475Z,99.99
2023-04-24T08:30:39.472Z,99.99
2023-04-24T08:31:39.500Z,99.99
2023-04-24T08:32:39.523Z,99.99
2023-04-24T08:33:39.467Z,99.99
2023-04-24T08:34:39.463Z,99.99
2023-04-24T08:35:39.446Z,99.99
2023-04-24T08:36:46.556Z,99.99
2023-04-24T08:37:39.442Z,99.99
2023-04-24T08:38:40.206Z,99.99
2023-04-24T08:39:39.436Z,99.99
2023-04-24T08:40:39.439Z,99.99
2023-04-24T08:41:39.430Z,99.99
2023-04-24T08:42:39.451Z,99.99
2023-04-24T08:43:39.414Z,99.99
2023-04-24T08:44:39.416Z,99.99
2023-04-24T08:45:39.450Z,99.99
2023-04-24T08:46:39.460Z,99.99
2023-04-24T08:47:39.450Z,99.99
2023-04-24T08:48:39.397Z,99.99
2023-04-24T08:49:40.293Z,99.99
2023-04-24T08:50:39.392Z,99.99
2023-04-24T08:51:39.383Z,99.99
2023-04-24T08:52:39.382Z,99.99
2023-04-24T08:53:39.372Z,99.99
2023-04-24T08:54:39.372Z,99.99
2023-04-24T08:55:39.365Z,99.99
2023-04-24T08:56:39.368Z,99.99
2023-04-24T08:57:39.367Z,99.99
2023-04-24T08:58:39.378Z,99.99
2023-04-24T08:59:39.351Z,99.99
2023-04-24T09:00:39.346Z,99.99
2023-04-24T09:01:39.368Z,99.99
2023-04-24T09:02:39.459Z,99.99
2023-04-24T09:03:39.406Z,99.99
2023-04-24T09:04:39.400Z,99.99
2023-04-24T09:05:39.326Z,99.99
2023-04-24T09:06:39.319Z,99.99
2023-04-24T09:07:39.313Z,99.99
2023-04-24T09:08:39.313Z,99.99
2023-04-24T09:09:39.306Z,99.99
2023-04-24T09:10:39.304Z,99.99
2023-04-24T09:11:39.304Z,99.99
2023-04-24T09:12:39.312Z,99.99
2023-04-24T09:13:39.288Z,99.99
2023-04-24T09:14:39.305Z,99.99
2023-04-24T09:15:39.279Z,99.99
2023-04-24T09:16:39.289Z,99.99
2023-04-24T09:17:39.297Z,99.99
2023-04-24T09:18:39.268Z,99.99
2023-04-24T09:19:39.260Z,99.99
2023-04-24T09:20:39.258Z,99.99
2023-04-24T09:21:39.256Z,99.99
2023-04-24T09:22:39.488Z,99.99
2023-04-24T09:23:39.250Z,99.99
2023-04-24T09:24:39.260Z,99.99
2023-04-24T09:25:39.232Z,99.99
2023-04-24T09:26:39.228Z,99.99
2023-04-24T09:27:39.231Z,99.99
2023-04-24T09:28:39.675Z,99.99
2023-04-24T09:29:39.226Z,99.99
2023-04-24T09:30:39.234Z,99.99
2023-04-24T09:31:39.242Z,99.99
2023-04-24T09:32:39.265Z,99.99
2023-04-24T09:33:39.205Z,99.99
2023-04-24T09:34:39.211Z,99.99
2023-04-24T09:35:39.194Z,99.99
2023-04-24T09:36:39.380Z,99.99
2023-04-24T09:37:39.192Z,99.99
2023-04-24T09:38:39.208Z,99.99
2023-04-24T09:39:39.171Z,99.99
2023-04-24T09:40:41.100Z,99.99
2023-04-24T09:41:39.161Z,99.99
2023-04-24T09:42:39.157Z,99.99
2023-04-24T09:43:39.149Z,99.99
2023-04-24T09:44:39.146Z,99.99
2023-04-24T09:45:39.222Z,99.99
2023-04-24T09:46:39.234Z,99.99
2023-04-24T09:47:39.149Z,99.99
2023-04-24T09:48:39.136Z,99.99
2023-04-24T09:49:39.121Z,99.99
2023-04-24T09:50:39.136Z,99.99
2023-04-24T09:51:39.111Z,99.99
2023-04-24T09:52:39.130Z,99.99
2023-04-24T09:53:39.104Z,99.99
2023-04-24T09:54:39.103Z,99.99
2023-04-24T09:55:40.474Z,99.99
2023-04-24T09:56:39.090Z,99.99
2023-04-24T09:57:39.092Z,99.99
2023-04-24T09:58:39.088Z,99.99
2023-04-24T09:59:39.076Z,99.99
2023-04-24T10:00:39.075Z,99.99
2023-04-24T10:01:39.100Z,99.99
2023-04-24T10:02:39.184Z,99.99
2023-04-24T10:03:39.070Z,99.99
2023-04-24T10:04:39.090Z,99.99
2023-04-24T10:05:39.064Z,99.99
2023-04-24T10:06:39.047Z,99.99
2023-04-24T10:07:39.032Z,99.99
2023-04-24T10:08:39.052Z,99.99
2023-04-24T10:09:39.036Z,99.99
2023-04-24T10:10:39.028Z,99.99
2023-04-24T10:11:39.016Z,99.99
2023-04-24T10:12:39.014Z,99.99
2023-04-24T10:13:39.009Z,99.99
2023-04-24T10:14:39.012Z,99.99
2023-04-24T10:15:39.024Z,99.99
2023-04-24T10:16:38.999Z,99.99
2023-04-24T10:17:39.023Z,99.99
2023-04-24T10:18:39.036Z,99.99
2023-04-24T10:19:39.013Z,99.99
2023-04-24T10:20:38.978Z,99.99
2023-04-24T10:21:38.973Z,99.99
2023-04-24T10:22:38.968Z,99.99
2023-04-24T10:23:38.962Z,99.99
2023-04-24T10:24:38.963Z,99.99
2023-04-24T10:25:38.955Z,99.99
2023-04-24T10:26:38.963Z,99.99
2023-04-24T10:27:38.943Z,99.99
2023-04-24T10:28:38.948Z,99.99
2023-04-24T10:29:38.935Z,99.99
2023-04-24T10:30:38.934Z,99.99
2023-04-24T10:31:38.962Z,99.99
2023-04-24T10:32:38.976Z,99.99
2023-04-24T10:33:38.928Z,99.99
2023-04-24T10:34:38.968Z,99.99
2023-04-24T10:35:38.906Z,99.99
2023-04-24T10:36:38.904Z,99.99
2023-04-24T10:37:38.906Z,99.99
2023-04-24T10:38:38.946Z,99.99
2023-04-24T10:39:38.896Z,99.99
2023-04-24T10:40:38.905Z,99.99
2023-04-24T10:41:38.881Z,99.99
2023-04-24T10:42:38.880Z,99.99
2023-04-24T10:43:38.875Z,99.99
2023-04-24T10:44:38.868Z,99.99
2023-04-24T10:45:38.870Z,99.99
2023-04-24T10:46:38.892Z,99.99
2023-04-24T10:47:38.868Z,99.99
2023-04-24T10:48:38.855Z,99.99
2023-04-24T10:49:38.852Z,99.99
2023-04-24T10:50:38.878Z,99.99
2023-04-24T10:51:38.842Z,99.99
2023-04-24T10:52:38.834Z,99.99
2023-04-24T10:53:38.831Z,99.99
2023-04-24T10:54:38.839Z,99.99
2023-04-24T10:55:38.820Z,99.99
2023-04-24T10:56:38.817Z,99.99
2023-04-24T10:57:38.811Z,99.99
2023-04-24T10:58:38.810Z,99.99
2023-04-24T10:59:38.804Z,99.99
2023-04-24T11:00:38.841Z,99.99
2023-04-24T11:01:40.752Z,99.99
2023-04-24T11:02:38.920Z,99.99
2023-04-24T11:03:39.056Z,99.99
2023-04-24T11:04:38.829Z,99.99
2023-04-24T11:05:38.774Z,99.99
2023-04-24T11:06:38.815Z,99.99
2023-04-24T11:07:38.765Z,99.99
2023-04-24T11:08:38.759Z,99.99
2023-04-24T11:09:38.762Z,99.99
2023-04-24T11:10:38.756Z,99.99
2023-04-24T11:11:38.750Z,99.99
2023-04-24T11:12:38.742Z,99.99
2023-04-24T11:13:38.737Z,99.99
2023-04-24T11:14:38.732Z,99.99
2023-04-24T11:15:38.727Z,99.99
2023-04-24T11:16:38.769Z,99.99
2023-04-24T11:17:38.864Z,99.99
2023-04-24T11:18:38.757Z,99.99
2023-04-24T11:19:38.729Z,99.99
2023-04-24T11:20:38.705Z,99.99
2023-04-24T11:21:38.701Z,99.99
2023-04-24T11:22:38.714Z,99.99
2023-04-24T11:23:38.702Z,99.99
2023-04-24T11:24:38.690Z,99.99
2023-04-24T11:25:38.683Z,99.99
2023-04-24T11:26:38.714Z,99.99
2023-04-24T11:27:38.672Z,99.99
2023-04-24T11:28:39.714Z,99.99
2023-04-24T11:29:38.670Z,99.99
2023-04-24T11:30:38.662Z,99.99
2023-04-24T11:31:38.717Z,99.99
2023-04-24T11:32:38.697Z,99.99
2023-04-24T11:33:39.207Z,99.99
2023-04-24T11:34:38.643Z,99.99
2023-04-24T11:35:38.651Z,99.99
2023-04-24T11:36:38.640Z,99.99
2023-04-24T11:37:38.635Z,99.99
2023-04-24T11:38:38.645Z,99.99
2023-04-24T11:39:38.630Z,99.99
2023-04-24T11:40:38.627Z,99.99
2023-04-24T11:41:38.611Z,99.99
2023-04-24T11:42:38.608Z,99.99
2023-04-24T11:43:38.641Z,99.99
2023-04-24T11:44:38.597Z,99.99
2023-04-24T11:45:38.639Z,99.99
2023-04-24T11:46:38.691Z,99.99
2023-04-24T11:47:38.606Z,99.99
2023-04-24T11:48:38.602Z,99.99
2023-04-24T11:49:38.581Z,99.99
2023-04-24T11:50:38.606Z,99.99
2023-04-24T11:51:51.096Z,99.99
2023-04-24T11:52:38.560Z,99.99
2023-04-24T11:53:38.603Z,99.99
2023-04-24T11:54:38.585Z,99.99
2023-04-24T11:55:38.564Z,99.99
2023-04-24T11:56:38.734Z,99.99
2023-04-24T11:57:38.565Z,99.99
2023-04-24T11:58:38.538Z,99.99
2023-04-24T11:59:38.557Z,99.99
2023-04-24T12:00:38.556Z,99.99
2023-04-24T12:01:38.531Z,99.99
2023-04-24T12:02:40.202Z,99.99
2023-04-24T12:03:38.723Z,99.99
2023-04-24T12:04:38.855Z,99.99
2023-04-24T12:05:38.608Z,99.99
2023-04-24T12:06:38.531Z,99.99
2023-04-24T12:07:38.538Z,99.99
2023-04-24T12:08:40.901Z,99.99
2023-04-24T12:09:38.518Z,99.99
2023-04-24T12:10:38.536Z,99.99
2023-04-24T12:11:38.553Z,99.99
2023-04-24T12:12:38.484Z,99.99
2023-04-24T12:13:38.538Z,99.99
2023-04-24T12:14:38.510Z,99.99
2023-04-24T12:15:38.489Z,99.99
2023-04-24T12:16:38.595Z,99.99
2023-04-24T12:17:38.508Z,99.99
2023-04-24T12:18:38.474Z,99.99
2023-04-24T12:19:38.450Z,99.99
2023-04-24T12:20:38.448Z,99.99
2023-04-24T12:21:38.440Z,99.99
2023-04-24T12:22:38.433Z,99.99
2023-04-24T12:23:38.594Z,99.99
2023-04-24T12:24:38.426Z,99.99
2023-04-24T12:25:38.421Z,99.99
2023-04-24T12:26:38.464Z,99.99
2023-04-24T12:27:38.416Z,99.99
2023-04-24T12:28:38.655Z,99.99
2023-04-24T12:29:38.403Z,99.99
2023-04-24T12:30:38.402Z,99.99
2023-04-24T12:31:38.427Z,99.99
2023-04-24T12:32:38.406Z,99.99
2023-04-24T12:33:38.676Z,99.99
2023-04-24T12:34:38.385Z,99.99
2023-04-24T12:35:38.398Z,99.99
2023-04-24T12:36:38.383Z,99.99
2023-04-24T12:37:38.379Z,99.99
2023-04-24T12:38:38.470Z,99.99
2023-04-24T12:39:38.364Z,99.99
2023-04-24T12:40:38.363Z,99.99
2023-04-24T12:41:38.358Z,99.99
2023-04-24T12:42:38.368Z,99.99
2023-04-24T12:43:38.644Z,99.99
2023-04-24T12:44:38.335Z,99.99
2023-04-24T12:45:38.335Z,99.99
2023-04-24T12:46:38.435Z,99.85
2023-04-24T12:47:38.330Z,99.90
2023-04-24T12:48:38.386Z,99.28
2023-04-24T12:49:38.318Z,99.28
2023-04-24T12:50:38.317Z,98.97
2023-04-24T12:51:38.312Z,97.79
2023-04-24T12:52:38.306Z,97.48
2023-04-24T12:53:38.307Z,97.28
2023-04-24T12:54:38.343Z,97.74
2023-04-24T12:55:38.294Z,97.38
2023-04-24T12:56:38.286Z,98.25
2023-04-24T12:57:38.289Z,98.36
2023-04-24T12:58:38.449Z,98.46